createdAt,value
2018-05-29T17:04:35.598Z,24.16
2018-05-29T17:05:36.145Z,24.25
2018-05-29T17:07:27.518Z,24.19
2018-05-29T17:08:27.136Z,24.18
2018-05-29T17:09:27.190Z,24.13
2018-05-29T17:10:27.840Z,24.1
2018-05-29T17:11:27.345Z,24.24
2018-05-29T17:12:27.916Z,24.14
2018-05-29T17:13:27.275Z,24.22
2018-05-29T17:14:27.846Z,24.18
2018-05-29T17:15:27.191Z,24.22
2018-05-29T17:16:29.411Z,24.18
2018-05-29T17:17:28.102Z,24.18
2018-05-29T17:18:38.000Z,24.26
2018-05-29T17:19:28.747Z,24.22
2018-05-29T17:20:27.806Z,24.21
2018-05-29T17:21:27.642Z,24.14
2018-05-29T17:22:27.844Z,24.25
2018-05-29T17:23:27.460Z,24.19
2018-05-29T17:24:27.558Z,24.21
2018-05-29T17:25:28.594Z,24.21
2018-05-29T17:26:28.375Z,24.32
2018-05-29T17:27:28.223Z,24.14
2018-05-29T17:28:29.690Z,24.28
2018-05-29T17:29:28.508Z,24.24
2018-05-29T17:30:27.821Z,24.25
2018-05-29T17:31:27.719Z,24.14
2018-05-29T17:32:28.985Z,24.22
2018-05-29T17:33:27.986Z,24.24
2018-05-29T17:34:27.421Z,24.26
2018-05-29T17:35:26.654Z,24.25
2018-05-29T17:36:27.286Z,24.28
2018-05-29T17:37:27.151Z,24.26
2018-05-29T17:38:27.964Z,24.28
2018-05-29T17:39:27.136Z,24.21
2018-05-29T17:40:27.528Z,24.28
2018-05-29T17:41:27.922Z,24.18
2018-05-29T17:42:28.256Z,24.21
2018-05-29T17:43:27.987Z,24.28
2018-05-29T17:44:29.795Z,24.28
2018-05-29T17:45:29.091Z,24.21
2018-05-29T17:46:30.461Z,24.22
2018-05-29T17:47:27.896Z,24.22
2018-05-29T17:48:41.373Z,24.18
2018-05-29T17:50:12.355Z,24.24
2018-05-29T17:50:28.245Z,24.32
2018-05-29T17:51:28.845Z,24.24
2018-05-29T17:52:28.603Z,24.28
2018-05-29T17:53:41.389Z,24.24
2018-05-29T17:54:32.927Z,24.25
2018-05-29T17:55:30.044Z,24.28
2018-05-29T17:56:44.981Z,24.19
2018-05-29T17:57:28.458Z,24.26
2018-05-29T17:58:28.381Z,24.28
2018-05-29T17:59:30.751Z,24.22
2018-05-29T18:00:27.144Z,24.22
2018-05-29T18:01:28.130Z,24.28
2018-05-29T18:02:30.487Z,24.34
2018-05-29T18:03:28.694Z,24.28
2018-05-29T18:04:30.185Z,24.26
2018-05-29T18:05:29.633Z,24.24
2018-05-29T18:06:29.259Z,24.29
2018-05-29T18:07:30.251Z,24.26
2018-05-29T18:08:27.663Z,24.34
2018-05-29T18:09:28.851Z,24.29
2018-05-29T18:10:28.943Z,24.31
2018-05-29T18:11:28.715Z,24.22
2018-05-29T18:12:28.014Z,24.25
2018-05-29T18:13:28.593Z,24.31
2018-05-29T18:14:28.450Z,24.21
2018-05-29T18:15:28.186Z,24.22
2018-05-29T18:16:28.450Z,24.29
2018-05-29T18:17:28.833Z,24.26
2018-05-29T18:18:28.704Z,24.29
2018-05-29T18:19:28.626Z,24.32
2018-05-29T18:20:27.938Z,24.28
2018-05-29T18:21:27.842Z,24.26
2018-05-29T18:22:29.844Z,24.25
2018-05-29T18:23:27.879Z,24.25
2018-05-29T18:24:28.671Z,24.26
2018-05-29T18:25:28.408Z,24.22
2018-05-29T18:26:28.692Z,24.25
2018-05-29T18:27:27.504Z,24.34
2018-05-29T18:28:28.498Z,24.24
2018-05-29T18:29:28.712Z,24.25
2018-05-29T18:30:28.198Z,24.25
2018-05-29T18:31:27.905Z,24.24
2018-05-29T18:32:28.900Z,24.29
2018-05-29T18:33:28.267Z,24.22
2018-05-29T18:34:29.511Z,24.22
2018-05-29T18:35:28.007Z,24.34
2018-05-29T18:36:28.269Z,24.31
2018-05-29T18:37:27.246Z,24.21
2018-05-29T18:38:26.356Z,24.24
2018-05-29T18:39:27.833Z,24.31
2018-05-29T18:40:27.225Z,24.25
2018-05-29T18:41:26.860Z,24.29
2018-05-29T18:42:27.849Z,24.34
2018-05-29T18:43:28.915Z,24.32
2018-05-29T18:44:38.868Z,24.21
2018-05-29T18:45:27.948Z,24.25
2018-05-29T18:46:27.543Z,24.31
2018-05-29T18:47:27.286Z,24.24
2018-05-29T18:48:27.861Z,24.25
2018-05-29T18:49:27.692Z,24.32
2018-05-29T18:50:28.173Z,24.32
2018-05-29T18:51:27.615Z,24.26
2018-05-29T18:52:28.963Z,24.26
2018-05-29T18:53:28.674Z,24.21
2018-05-29T18:54:29.607Z,24.31
2018-05-29T18:55:27.653Z,24.24
2018-05-29T18:56:27.679Z,24.29
2018-05-29T18:57:27.738Z,24.24
2018-05-29T18:58:27.287Z,24.32
2018-05-29T18:59:30.005Z,24.32
2018-05-29T19:00:30.222Z,24.28
2018-05-29T19:01:29.030Z,24.26
2018-05-29T19:02:27.881Z,24.25
2018-05-29T19:03:29.900Z,24.21
2018-05-29T19:04:30.160Z,24.28
2018-05-29T19:05:28.943Z,24.21
2018-05-29T19:06:28.890Z,24.24
2018-05-29T19:07:29.416Z,24.24
2018-05-29T19:08:27.269Z,24.22
2018-05-29T19:09:28.739Z,24.29
2018-05-29T19:10:27.243Z,24.25
2018-05-29T19:17:08.410Z,24.26
2018-05-29T19:18:08.195Z,24.24
2018-05-29T19:19:21.099Z,24.24
2018-05-29T19:20:10.114Z,24.26
2018-05-29T19:21:09.020Z,24.31
2018-05-29T19:22:13.179Z,24.29
2018-05-29T19:23:08.451Z,24.24
2018-05-29T19:24:08.616Z,24.32
2018-05-29T19:25:09.532Z,24.26
2018-05-29T19:26:09.869Z,24.24
2018-05-29T19:27:12.169Z,24.22
2018-05-29T19:28:10.068Z,24.28
2018-05-29T19:29:10.002Z,24.25
2018-05-29T19:30:08.070Z,24.26
2018-05-29T19:31:08.501Z,24.22
2018-05-29T19:32:07.635Z,24.28
2018-05-29T19:33:08.918Z,24.32
2018-05-29T19:34:08.254Z,24.28
2018-05-29T19:35:08.547Z,24.28
2018-05-29T19:36:08.992Z,24.25
2018-05-29T19:37:09.199Z,24.31
2018-05-29T19:38:07.874Z,24.26
2018-05-29T19:39:08.396Z,24.26
2018-05-29T19:40:07.135Z,24.25
2018-05-29T19:41:07.488Z,24.26
2018-05-29T19:42:09.108Z,24.26
2018-05-29T19:43:09.929Z,24.28
2018-05-29T19:44:12.027Z,24.29
2018-05-29T19:45:12.416Z,24.22
2018-05-29T19:46:23.776Z,24.25
2018-05-29T19:47:13.479Z,24.19
2018-05-29T19:48:09.618Z,24.32
2018-05-29T19:49:10.558Z,24.29
2018-05-29T19:50:07.054Z,24.18
2018-05-29T19:51:07.373Z,24.21
2018-05-29T19:52:07.672Z,24.22
2018-05-29T19:53:11.022Z,24.21
2018-05-29T19:54:07.588Z,24.19
2018-05-29T19:55:07.486Z,24.26
2018-05-29T19:56:06.683Z,24.26
2018-05-29T19:57:07.416Z,24.22
2018-05-29T19:58:07.468Z,24.18
2018-05-29T19:59:07.236Z,24.19
2018-05-29T20:00:08.201Z,24.22
2018-05-29T20:01:07.694Z,24.28
2018-05-29T20:02:07.218Z,24.28
2018-05-29T20:03:08.778Z,24.22
2018-05-29T20:04:07.580Z,24.26
2018-05-29T20:05:07.691Z,24.24
2018-05-29T20:06:08.464Z,24.29
2018-05-29T20:07:07.766Z,24.22
2018-05-29T20:08:06.935Z,24.18
2018-05-29T20:09:07.383Z,24.14
2018-05-29T20:10:07.490Z,24.25
2018-05-29T20:11:08.432Z,24.24
2018-05-29T20:12:08.221Z,24.25
2018-05-29T20:13:07.034Z,24.21
2018-05-29T20:14:07.652Z,24.22
2018-05-29T20:15:08.093Z,24.14
2018-05-29T20:16:07.698Z,24.19
2018-05-29T20:17:08.163Z,24.18
2018-05-29T20:18:07.617Z,24.18
2018-05-29T20:19:08.271Z,24.21
2018-05-29T20:20:08.543Z,24.18
2018-05-29T20:21:07.812Z,24.28
2018-05-29T20:22:09.154Z,24.18
2018-05-29T20:23:10.154Z,24.16
2018-05-29T20:24:09.461Z,24.22
2018-05-29T20:25:07.902Z,24.25
2018-05-29T20:26:08.536Z,24.19
2018-05-29T20:27:08.207Z,24.18
2018-05-29T20:28:09.586Z,24.24
2018-05-29T20:29:08.409Z,24.19
2018-05-29T20:30:08.044Z,24.26
2018-05-29T20:31:07.291Z,24.24
2018-05-29T20:32:07.163Z,24.28
2018-05-29T20:33:07.348Z,24.25
2018-05-29T20:34:07.374Z,24.16
2018-05-29T20:35:07.527Z,24.19
2018-05-29T20:36:07.091Z,24.09
2018-05-29T20:37:07.488Z,24.16
2018-05-29T20:38:07.258Z,24.24
2018-05-29T20:39:07.802Z,24.13
2018-05-29T20:40:07.363Z,24.24
2018-05-29T20:41:07.219Z,24.24
2018-05-29T20:42:07.351Z,24.11
2018-05-29T20:43:07.339Z,24.14
2018-05-29T20:44:07.168Z,24.14
2018-05-29T20:45:07.304Z,24.25
2018-05-29T20:46:07.566Z,24.11
2018-05-29T20:47:07.282Z,24.24
2018-05-29T20:48:06.319Z,24.07
2018-05-29T20:49:06.326Z,24.22
2018-05-29T20:50:06.956Z,24.24
2018-05-29T20:51:07.655Z,24.1
2018-05-29T20:52:07.591Z,24.13
2018-05-29T20:53:07.382Z,24.09
2018-05-29T20:54:07.963Z,24.18
2018-05-29T20:55:07.197Z,24.19
2018-05-29T20:56:06.943Z,24.16
2018-05-29T20:57:06.925Z,24.25
2018-05-29T20:58:06.745Z,24.13
2018-05-29T20:59:07.143Z,24.1
2018-05-29T21:00:06.364Z,24.1
2018-05-29T21:01:06.569Z,24.14
2018-05-29T21:02:06.596Z,24.1
2018-05-29T21:03:06.643Z,24.18
2018-05-29T21:04:06.784Z,24.09
2018-05-29T21:05:07.029Z,24.22
2018-05-29T21:06:06.324Z,24.26
2018-05-29T21:07:09.773Z,24.31
2018-05-29T21:08:22.152Z,24.29
2018-05-29T21:09:05.968Z,24.28
2018-05-29T21:10:06.601Z,24.25
2018-05-29T21:11:06.651Z,24.26
2018-05-29T21:12:06.959Z,24.31
2018-05-29T21:13:06.880Z,24.24
2018-05-29T21:14:06.312Z,24.31
2018-05-29T21:15:06.500Z,24.25
2018-05-29T21:16:06.270Z,24.24
2018-05-29T21:17:06.085Z,24.32
2018-05-29T21:18:05.988Z,24.29
2018-05-29T21:19:06.389Z,24.24
2018-05-29T21:20:06.745Z,24.24
2018-05-29T21:21:07.112Z,24.25
2018-05-29T21:22:06.929Z,24.34
2018-05-29T21:23:06.232Z,24.28
2018-05-29T21:24:06.423Z,24.29
2018-05-29T21:25:06.026Z,24.32
2018-05-29T21:26:05.976Z,24.32
2018-05-29T21:27:05.983Z,24.31
2018-05-29T21:28:06.121Z,24.29
2018-05-29T21:29:06.030Z,24.31
2018-05-29T21:30:06.146Z,24.43
2018-05-29T21:31:06.030Z,24.28
2018-05-29T21:32:05.886Z,24.32
2018-05-29T21:33:05.856Z,24.31
2018-05-29T21:37:35.318Z,24.29
2018-05-29T21:38:35.166Z,24.29
2018-05-29T21:39:35.160Z,24.29
2018-05-29T21:40:35.193Z,24.38
2018-05-29T21:41:35.076Z,24.38
2018-05-29T21:42:35.163Z,24.34
2018-05-29T21:43:35.106Z,24.29
2018-05-29T21:44:35.119Z,24.36
2018-05-29T21:45:35.075Z,24.36
2018-05-29T21:46:35.336Z,24.37
2018-05-29T21:47:35.294Z,24.34
2018-05-29T21:48:35.099Z,24.4
2018-05-29T21:49:35.129Z,24.36
2018-05-29T21:50:35.108Z,24.34
2018-05-29T21:51:35.125Z,24.29
2018-05-29T21:52:35.133Z,24.41
2018-05-29T21:53:35.254Z,24.32
2018-05-29T21:54:35.136Z,24.38
2018-05-29T21:55:35.113Z,24.32
2018-05-29T21:56:35.094Z,24.38
2018-05-29T21:57:35.180Z,24.38
2018-05-29T21:58:35.168Z,24.32
2018-05-29T21:59:35.256Z,24.29
2018-05-29T22:00:35.200Z,24.36
2018-05-29T22:01:35.922Z,24.32
2018-05-29T22:02:35.193Z,24.34
2018-05-29T22:03:35.457Z,24.29
2018-05-29T22:04:35.254Z,24.29
2018-05-29T22:05:35.204Z,24.36
2018-05-29T22:06:35.213Z,24.29
2018-05-29T22:07:35.146Z,24.28
2018-05-29T22:08:35.171Z,24.31
2018-05-29T22:09:35.131Z,24.28
2018-05-29T22:10:35.150Z,24.28
2018-05-29T22:11:35.221Z,24.32
2018-05-29T22:12:35.202Z,24.28
2018-05-29T22:13:35.164Z,24.31
2018-05-29T22:14:35.138Z,24.29
2018-05-29T22:15:35.181Z,24.32
2018-05-29T22:16:35.251Z,24.29
2018-05-29T22:17:35.158Z,24.29
2018-05-29T22:22:04.083Z,24.28
2018-05-29T22:23:04.137Z,24.32
2018-05-29T22:24:04.185Z,24.29
2018-05-29T22:25:04.139Z,24.26
2018-05-29T22:26:04.140Z,24.32
2018-05-29T22:27:04.183Z,24.37
2018-05-29T22:28:04.264Z,24.37
2018-05-29T22:29:04.210Z,24.4
2018-05-29T22:30:04.146Z,24.32
2018-05-29T22:31:04.152Z,24.38
2018-05-29T22:32:04.207Z,24.36
2018-05-29T22:33:04.214Z,24.36
2018-05-29T22:34:04.178Z,24.38
2018-05-29T22:35:04.191Z,24.34
2018-05-29T22:36:04.137Z,24.34
2018-05-29T22:37:04.120Z,24.37
2018-05-29T22:38:04.430Z,24.4
2018-05-29T22:39:04.117Z,24.41
2018-05-29T22:40:04.106Z,24.41
2018-05-29T22:41:04.106Z,24.41
2018-05-29T22:42:04.151Z,24.4
2018-05-29T22:43:04.222Z,24.4
2018-05-29T22:44:04.126Z,24.43
2018-05-29T22:45:04.155Z,24.43
2018-05-29T22:46:04.088Z,24.38
2018-05-29T22:47:04.145Z,24.43
2018-05-29T22:48:04.155Z,24.41
2018-05-29T22:49:04.106Z,24.41
2018-05-29T22:50:04.120Z,24.34
2018-05-29T22:51:04.154Z,24.46
2018-05-29T22:52:04.072Z,24.38
2018-05-29T22:53:04.263Z,24.38
2018-05-29T22:54:04.178Z,24.4
2018-05-29T22:55:04.225Z,24.44
2018-05-29T22:56:04.189Z,24.38
2018-05-29T22:57:04.215Z,24.4
2018-05-29T22:58:04.222Z,24.41
2018-05-29T22:59:04.155Z,24.46
2018-05-29T23:00:04.321Z,24.44
2018-05-29T23:01:04.212Z,24.41
2018-05-29T23:02:04.140Z,24.43
2018-05-29T23:03:04.178Z,24.47
2018-05-29T23:08:21.879Z,24.46
2018-05-29T23:08:33.981Z,24.43
2018-05-29T23:09:33.941Z,24.4
2018-05-29T23:10:33.940Z,24.44
2018-05-29T23:11:33.902Z,24.48
2018-05-29T23:12:33.933Z,24.38
2018-05-29T23:13:35.192Z,24.5
2018-05-29T23:14:33.940Z,24.48
2018-05-29T23:15:34.677Z,24.48
2018-05-29T23:16:33.999Z,24.51
2018-05-29T23:17:33.958Z,24.44
2018-05-29T23:18:34.100Z,24.43
2018-05-29T23:19:34.002Z,24.38
2018-05-29T23:20:33.969Z,24.43
2018-05-29T23:21:33.937Z,24.48
2018-05-29T23:22:33.952Z,24.46
2018-05-29T23:23:33.996Z,24.43
2018-05-29T23:24:33.958Z,24.5
2018-05-29T23:25:34.012Z,24.46
2018-05-29T23:26:34.031Z,24.48
2018-05-29T23:27:34.123Z,24.41
2018-05-29T23:28:34.014Z,24.38
2018-05-29T23:29:34.008Z,24.38
2018-05-29T23:30:34.087Z,24.48
2018-05-29T23:31:34.058Z,24.44
2018-05-29T23:32:34.042Z,24.38
2018-05-29T23:33:34.021Z,24.4
2018-05-29T23:34:34.031Z,24.53
2018-05-29T23:35:34.063Z,24.37
2018-05-29T23:36:33.989Z,24.43
2018-05-29T23:37:34.074Z,24.4
2018-05-29T23:38:34.127Z,24.46
2018-05-29T23:39:34.081Z,24.46
2018-05-29T23:40:34.071Z,24.4
2018-05-29T23:41:34.045Z,24.48
2018-05-29T23:42:33.999Z,24.43
2018-05-29T23:43:34.074Z,24.47
2018-05-29T23:44:34.048Z,24.38
2018-05-29T23:45:34.071Z,24.5
2018-05-29T23:46:34.058Z,24.44
2018-05-29T23:47:33.998Z,24.41
2018-05-29T23:48:34.063Z,24.43
2018-05-29T23:49:34.022Z,24.44
2018-05-29T23:50:34.026Z,24.43
2018-05-29T23:51:34.137Z,24.5
2018-05-29T23:52:34.109Z,24.53
2018-05-29T23:53:34.071Z,24.47
2018-05-29T23:54:34.094Z,24.4
2018-05-29T23:55:34.077Z,24.53
2018-05-29T23:56:34.088Z,24.55
2018-05-29T23:57:34.091Z,24.44
2018-05-29T23:58:34.140Z,24.41
2018-05-29T23:59:34.105Z,24.55
